This is the latest recevied weather packets stored in our database for station/object WA4IKQ. If no packets are shown the sender has not sent any weather packets the latest 10 day(s).
| Time | Temp. | Humidity | Pressure | Rain* | Wind** | Luminosity | Snow |
|---|---|---|---|---|---|---|---|
| 1777824519 | 22.78° C | 67% | 1018.2 hPa | 0 mm | 0.89 m/s, 132° | - | - |
| 1777824271 | 22.78° C | 67% | 1018.2 hPa | 0 mm | 0.89 m/s, 132° | - | - |
| 1777824157 | 22.78° C | 67% | 1018.2 hPa | 0 mm | 3.13 m/s, 18° | - | - |
| 1777823972 | 22.78° C | 67% | 1018.2 hPa | 0 mm | 3.13 m/s, 18° | - | - |
| 1777823497 | 22.78° C | 68% | 1018.2 hPa | 0 mm | 2.24 m/s, 18° | - | - |
| 1777823371 | 22.22° C | 71% | 1018.2 hPa | 0 mm | 0.89 m/s, 41° | - | - |
| 1777823369 | 22.78° C | 68% | 1018.2 hPa | 0 mm | 2.24 m/s, 18° | - | - |
| 1777823071 | 22.22° C | 71% | 1018.2 hPa | 0 mm | 0.89 m/s, 41° | - | - |
| 1777823020 | 22.22° C | 69% | 1018.3 hPa | 0 mm | 3.58 m/s, 359° | - | - |
| 1777822771 | 22.22° C | 69% | 1018.3 hPa | 0 mm | 3.58 m/s, 359° | - | - |
| 1777822697 | 22.22° C | 71% | 1018.4 hPa | 0 mm | 2.68 m/s, 31° | - | - |
| 1777822470 | 22.22° C | 71% | 1018.4 hPa | 0 mm | 2.68 m/s, 31° | - | - |
| 1777822354 | 22.22° C | 71% | 1018.3 hPa | 0 mm | 3.58 m/s, 35° | - | - |
| 1777822171 | 22.22° C | 71% | 1018.3 hPa | 0 mm | 3.58 m/s, 35° | - | - |
| 1777821957 | 21.67° C | 72% | 1018.2 hPa | 0 mm | 1.34 m/s, 27° | - | - |
| 1777821571 | 21.67° C | 72% | 1018.2 hPa | 0 mm | 1.34 m/s, 27° | - | - |
| 1777821114 | 21.67° C | 75% | 1018.1 hPa | 0 mm | 1.79 m/s, 15° | - | - |
| 1777820969 | 21.67° C | 75% | 1018.1 hPa | 0 mm | 1.79 m/s, 15° | - | - |
| 1777820597 | 21.11° C | 75% | 1018 hPa | 0 mm | 1.34 m/s, 326° | - | - |
| 1777820413 | 21.11° C | 75% | 1017.9 hPa | 0 mm | 1.79 m/s, 319° | - | - |
| 1777820370 | 21.11° C | 75% | 1018 hPa | 0 mm | 1.34 m/s, 326° | - | - |
| 1777820069 | 21.11° C | 75% | 1017.9 hPa | 0 mm | 1.79 m/s, 319° | - | - |
| 1777820050 | 21.11° C | 75% | 1017.9 hPa | 0 mm | 3.13 m/s, 309° | - | - |
| 1777819773 | 21.11° C | 75% | 1017.9 hPa | 0 mm | 3.13 m/s, 309° | - | - |
| 1777819727 | 21.11° C | 75% | 1017.9 hPa | 0 mm | 1.79 m/s, 34° | - | - |
* Rain latest hour (hover to see other rain measurements)
** Current wind speed in m/s (hover to see current wind gust speed)